createdAt,value
2023-11-30T00:01:05.570Z,-1.10
2023-11-30T00:03:45.498Z,-1.10
2023-11-30T00:06:19.234Z,-1.00
2023-11-30T00:08:55.514Z,-1.00
2023-11-30T00:11:29.457Z,-1.00
2023-11-30T00:14:03.431Z,-1.00
2023-11-30T00:16:37.048Z,-1.00
2023-11-30T00:19:12.045Z,-1.00
2023-11-30T00:22:01.412Z,-0.92
2023-11-30T00:24:36.471Z,-0.90
2023-11-30T00:27:17.164Z,-0.82
2023-11-30T00:29:52.639Z,-0.80
2023-11-30T00:32:37.026Z,-0.70
2023-11-30T00:35:20.709Z,-0.70
2023-11-30T00:37:59.299Z,-0.62
2023-11-30T00:40:41.950Z,-0.60
2023-11-30T00:43:26.640Z,-0.60
2023-11-30T00:46:20.428Z,-0.56
2023-11-30T00:48:58.005Z,-0.56
2023-11-30T00:51:32.119Z,-0.50
2023-11-30T00:54:21.742Z,-0.50
2023-11-30T00:57:03.431Z,-0.50
2023-11-30T00:59:56.050Z,-0.50
2023-11-30T01:02:32.239Z,-0.50
2023-11-30T01:05:23.966Z,-0.40
2023-11-30T01:08:04.412Z,-0.40
2023-11-30T01:13:27.145Z,-0.40
2023-11-30T01:16:03.612Z,-0.40
2023-11-30T01:18:37.714Z,-0.30
2023-11-30T01:21:12.839Z,-0.30
2023-11-30T01:23:46.824Z,-0.30
2023-11-30T01:26:23.226Z,-0.20
2023-11-30T01:28:57.873Z,-0.20
2023-11-30T01:31:33.676Z,-0.14
2023-11-30T01:34:10.116Z,-0.14
2023-11-30T01:36:43.985Z,-0.10
2023-11-30T01:39:18.530Z,-0.10
2023-11-30T01:41:53.152Z,-0.02
2023-11-30T01:44:29.447Z,-0.10
2023-11-30T01:47:05.836Z,-0.10
2023-11-30T01:49:40.216Z,-0.12
2023-11-30T01:52:27.163Z,-0.20
2023-11-30T01:55:24.260Z,-0.10
2023-11-30T01:58:01.461Z,-0.10
2023-11-30T02:00:41.680Z,-0.10
2023-11-30T02:03:23.354Z,-0.04
2023-11-30T02:06:00.780Z,0.00
2023-11-30T02:08:37.962Z,0.02
2023-11-30T02:11:30.561Z,0.10
2023-11-30T02:14:11.485Z,0.10
2023-11-30T02:16:45.794Z,0.10
2023-11-30T02:19:19.674Z,0.10
2023-11-30T02:21:55.524Z,0.18
2023-11-30T02:24:31.648Z,0.20
2023-11-30T02:27:05.635Z,0.28
2023-11-30T02:29:39.554Z,0.30
2023-11-30T02:32:14.367Z,0.30
2023-11-30T02:34:48.200Z,0.30
2023-11-30T02:37:22.499Z,0.20
2023-11-30T02:39:56.717Z,0.20
2023-11-30T02:42:30.608Z,0.10
2023-11-30T02:45:04.625Z,0.10
2023-11-30T02:47:39.493Z,0.00
2023-11-30T02:50:15.286Z,0.00
2023-11-30T02:52:49.732Z,-0.08
2023-11-30T02:55:24.035Z,-0.10
2023-11-30T02:57:57.868Z,-0.10
2023-11-30T03:00:31.840Z,-0.10
2023-11-30T03:03:05.728Z,-0.10
2023-11-30T03:05:39.453Z,-0.10
2023-11-30T03:08:13.087Z,-0.10
2023-11-30T03:10:47.736Z,-0.10
2023-11-30T03:13:21.603Z,-0.10
2023-11-30T03:15:56.277Z,-0.10
2023-11-30T03:18:31.021Z,-0.10
2023-11-30T03:21:18.693Z,-0.12
2023-11-30T03:23:55.795Z,-0.12
2023-11-30T03:26:29.953Z,-0.10
2023-11-30T03:29:03.676Z,-0.10
2023-11-30T03:31:40.370Z,-0.10
2023-11-30T03:34:14.654Z,0.00
2023-11-30T03:36:48.566Z,0.00
2023-11-30T03:39:22.281Z,0.00
2023-11-30T03:41:56.579Z,0.00
2023-11-30T03:44:30.725Z,0.10
2023-11-30T03:47:05.148Z,0.20
2023-11-30T03:49:47.138Z,0.20
2023-11-30T03:52:20.896Z,0.30
2023-11-30T03:54:54.575Z,0.30
2023-11-30T03:57:28.801Z,0.30
2023-11-30T04:00:03.017Z,0.32
2023-11-30T04:02:38.654Z,0.34
2023-11-30T04:05:14.664Z,0.34
2023-11-30T04:07:49.288Z,0.30
2023-11-30T04:10:27.124Z,0.30
2023-11-30T04:13:01.206Z,0.30
2023-11-30T04:15:34.926Z,0.28
2023-11-30T04:18:08.770Z,0.30
2023-11-30T04:20:42.695Z,0.30
2023-11-30T04:23:16.635Z,0.30
2023-11-30T04:25:50.556Z,0.30
2023-11-30T04:28:24.569Z,0.30
2023-11-30T04:30:58.989Z,0.22
2023-11-30T04:33:33.140Z,0.20
2023-11-30T04:36:12.390Z,0.20
2023-11-30T04:38:46.325Z,0.12
2023-11-30T04:41:21.205Z,0.10
2023-11-30T04:43:55.070Z,0.00
2023-11-30T04:46:29.341Z,-0.02
2023-11-30T04:49:06.979Z,-0.10
2023-11-30T04:51:43.757Z,-0.14
2023-11-30T04:54:17.633Z,-0.18
2023-11-30T04:56:51.526Z,-0.20
2023-11-30T04:59:25.919Z,-0.20
2023-11-30T05:02:00.152Z,-0.20
2023-11-30T05:04:34.311Z,-0.20
2023-11-30T05:07:09.154Z,-0.20
2023-11-30T05:09:48.832Z,-0.20
2023-11-30T05:12:23.846Z,-0.24
2023-11-30T05:15:03.389Z,-0.30
2023-11-30T05:17:38.033Z,-0.30
2023-11-30T05:20:14.196Z,-0.30
2023-11-30T05:22:48.014Z,-0.30
2023-11-30T05:25:22.135Z,-0.30
2023-11-30T05:27:55.934Z,-0.30
2023-11-30T05:30:30.432Z,-0.40
2023-11-30T05:33:35.709Z,-0.40
2023-11-30T05:36:13.269Z,-0.40
2023-11-30T05:39:04.945Z,-0.40
2023-11-30T05:41:54.412Z,-0.36
2023-11-30T05:45:36.934Z,-0.30
2023-11-30T05:48:13.984Z,-0.16
2023-11-30T05:50:49.761Z,-0.08
2023-11-30T05:53:23.805Z,0.00
2023-11-30T05:55:57.667Z,0.00
2023-11-30T05:58:31.738Z,0.00
2023-11-30T06:01:06.138Z,0.00
2023-11-30T06:03:42.155Z,0.10
2023-11-30T06:06:18.092Z,0.14
2023-11-30T06:08:54.253Z,0.20
2023-11-30T06:11:29.765Z,0.20
2023-11-30T06:14:05.703Z,0.30
2023-11-30T06:16:39.777Z,0.30
2023-11-30T06:19:14.053Z,0.30
2023-11-30T06:21:48.134Z,0.22
2023-11-30T06:24:27.828Z,0.30
2023-11-30T06:27:03.986Z,0.30
2023-11-30T06:29:38.234Z,0.30
2023-11-30T06:32:12.709Z,0.34
2023-11-30T06:34:47.586Z,0.40
2023-11-30T06:37:22.338Z,0.40
2023-11-30T06:39:56.450Z,0.40
2023-11-30T06:42:31.032Z,0.40
2023-11-30T06:45:05.297Z,0.40
2023-11-30T06:47:39.494Z,0.40
2023-11-30T06:50:15.058Z,0.40
2023-11-30T06:52:49.033Z,0.50
2023-11-30T06:55:25.535Z,0.50
2023-11-30T06:58:00.255Z,0.60
2023-11-30T07:00:35.755Z,0.68
2023-11-30T07:03:10.792Z,0.70
2023-11-30T07:05:47.211Z,0.80
2023-11-30T07:08:21.416Z,0.86
2023-11-30T07:10:55.675Z,0.90
2023-11-30T07:13:29.354Z,1.00
2023-11-30T07:16:03.482Z,1.10
2023-11-30T07:18:37.966Z,1.10
2023-11-30T07:21:17.812Z,1.20
2023-11-30T07:23:51.541Z,1.20
2023-11-30T07:26:27.909Z,1.20
2023-11-30T07:29:01.756Z,1.22
2023-11-30T07:31:36.036Z,1.30
2023-11-30T07:34:10.308Z,1.30
2023-11-30T07:36:44.711Z,1.40
2023-11-30T07:39:18.708Z,1.50
2023-11-30T07:41:52.509Z,1.68
2023-11-30T07:44:29.251Z,1.70
2023-11-30T07:47:22.797Z,1.70
2023-11-30T07:49:56.748Z,1.80
2023-11-30T07:52:32.502Z,1.90
2023-11-30T07:55:06.613Z,2.00
2023-11-30T07:57:40.412Z,2.00
2023-11-30T08:00:17.659Z,2.08
2023-11-30T08:02:51.362Z,2.14
2023-11-30T08:05:26.315Z,2.30
2023-11-30T08:08:00.029Z,2.40
2023-11-30T08:10:35.685Z,2.44
2023-11-30T08:13:14.690Z,2.48
2023-11-30T08:15:49.758Z,2.40
2023-11-30T08:18:26.053Z,2.30
2023-11-30T08:21:03.473Z,2.30
2023-11-30T08:23:38.846Z,2.30
2023-11-30T08:26:13.472Z,2.20
2023-11-30T08:28:50.731Z,2.10
2023-11-30T08:31:24.657Z,2.00
2023-11-30T08:33:58.354Z,2.00
2023-11-30T08:36:32.309Z,2.00
2023-11-30T08:39:08.357Z,2.10
2023-11-30T08:41:46.081Z,2.10
2023-11-30T08:44:19.851Z,2.20
2023-11-30T08:46:54.388Z,2.18
2023-11-30T08:49:30.663Z,2.10
2023-11-30T08:52:04.384Z,2.00
2023-11-30T08:54:39.783Z,2.00
2023-11-30T08:57:14.398Z,1.90
2023-11-30T08:59:49.643Z,1.80
2023-11-30T09:02:25.838Z,1.80
2023-11-30T09:04:59.850Z,1.90
2023-11-30T09:07:33.671Z,2.04
2023-11-30T09:10:15.424Z,2.26
2023-11-30T09:12:49.457Z,2.50
2023-11-30T09:15:26.526Z,2.62
2023-11-30T09:18:03.244Z,2.80
2023-11-30T09:20:39.902Z,2.90
2023-11-30T09:23:14.153Z,3.00
2023-11-30T09:25:47.941Z,3.20
2023-11-30T09:28:22.459Z,3.42
2023-11-30T09:30:57.611Z,3.60
2023-11-30T09:33:33.692Z,3.70
2023-11-30T09:36:09.284Z,3.80
2023-11-30T09:38:43.259Z,3.80
2023-11-30T09:41:22.385Z,3.90
2023-11-30T09:43:59.094Z,4.12
2023-11-30T09:46:50.352Z,4.20
2023-11-30T09:49:24.634Z,4.40
2023-11-30T09:51:59.014Z,4.70
2023-11-30T09:54:33.008Z,4.86
2023-11-30T09:57:07.177Z,4.98
2023-11-30T09:59:40.936Z,4.80
2023-11-30T10:02:15.826Z,4.78
2023-11-30T10:04:49.912Z,4.70
2023-11-30T10:07:24.128Z,4.50
2023-11-30T10:10:00.217Z,4.28
2023-11-30T10:12:34.316Z,4.20
2023-11-30T10:15:10.775Z,4.06
2023-11-30T10:17:45.014Z,3.90
2023-11-30T10:20:19.854Z,3.80
2023-11-30T10:22:53.695Z,3.88
2023-11-30T10:25:30.397Z,3.90
2023-11-30T10:28:08.095Z,4.00
2023-11-30T10:30:46.511Z,4.10
2023-11-30T10:33:27.209Z,4.38
2023-11-30T10:36:05.497Z,4.60
2023-11-30T10:38:43.499Z,4.86
2023-11-30T10:41:29.203Z,5.20
2023-11-30T10:44:06.323Z,5.50
2023-11-30T10:46:55.197Z,5.70
2023-11-30T10:49:33.219Z,5.50
2023-11-30T10:52:09.796Z,5.36
2023-11-30T10:54:54.762Z,5.20
2023-11-30T10:57:29.487Z,5.10
2023-11-30T11:00:06.890Z,4.90
2023-11-30T11:02:48.118Z,4.80
2023-11-30T11:05:38.681Z,4.70
2023-11-30T11:08:14.026Z,4.60
2023-11-30T11:10:52.550Z,4.60
2023-11-30T11:13:30.374Z,4.60
2023-11-30T11:16:07.693Z,4.60
2023-11-30T11:18:46.859Z,4.50
2023-11-30T11:21:35.661Z,4.54
2023-11-30T11:24:11.504Z,4.52
2023-11-30T11:26:50.735Z,4.60
2023-11-30T11:29:30.888Z,4.70
2023-11-30T11:32:10.686Z,4.80
2023-11-30T11:34:44.812Z,4.90
2023-11-30T11:37:20.704Z,5.58
2023-11-30T11:39:56.328Z,6.76
2023-11-30T11:42:30.588Z,7.36
2023-11-30T11:45:08.290Z,7.70
2023-11-30T11:47:44.916Z,7.94
2023-11-30T11:50:22.123Z,8.30
2023-11-30T11:53:02.545Z,7.90
2023-11-30T11:55:36.579Z,7.36
2023-11-30T11:58:15.317Z,6.60
2023-11-30T12:00:58.441Z,6.20
2023-11-30T12:03:33.023Z,5.90
2023-11-30T12:06:07.531Z,6.04
2023-11-30T12:08:44.207Z,6.00
2023-11-30T12:11:21.014Z,6.28
2023-11-30T12:14:01.237Z,5.70
2023-11-30T12:16:39.938Z,5.34
2023-11-30T12:19:19.808Z,5.10
2023-11-30T12:21:54.761Z,5.34
2023-11-30T12:25:12.139Z,5.70
2023-11-30T12:27:49.750Z,6.56
2023-11-30T12:30:25.044Z,7.16
2023-11-30T12:32:59.902Z,7.58
2023-11-30T12:35:35.008Z,7.80
2023-11-30T12:38:09.919Z,8.00
2023-11-30T12:40:44.424Z,8.50
2023-11-30T12:43:18.339Z,8.30
2023-11-30T12:45:53.059Z,7.48
2023-11-30T12:48:28.017Z,7.38
2023-11-30T12:51:01.938Z,6.76
2023-11-30T12:53:40.847Z,6.24
2023-11-30T12:56:16.282Z,5.84
2023-11-30T12:58:51.467Z,5.44
2023-11-30T13:01:25.738Z,5.10
2023-11-30T13:04:01.804Z,4.80
2023-11-30T13:06:36.645Z,4.54
2023-11-30T13:09:11.372Z,4.40
2023-11-30T13:11:47.097Z,4.10
2023-11-30T13:14:21.197Z,3.80
2023-11-30T13:17:06.764Z,3.60
2023-11-30T13:19:42.197Z,3.36
2023-11-30T13:22:17.641Z,3.20
2023-11-30T13:24:52.952Z,3.10
2023-11-30T13:27:26.841Z,3.00
2023-11-30T13:30:01.127Z,2.92
2023-11-30T13:32:36.821Z,2.90
2023-11-30T13:35:12.057Z,2.94
2023-11-30T13:37:45.534Z,3.00
2023-11-30T13:40:20.883Z,3.00
2023-11-30T13:42:55.281Z,3.00
2023-11-30T13:45:29.182Z,2.90
2023-11-30T13:48:04.984Z,2.86
2023-11-30T13:51:00.855Z,2.80
2023-11-30T13:53:37.491Z,2.80
2023-11-30T13:56:13.427Z,2.90
2023-11-30T13:58:47.111Z,2.90
2023-11-30T14:01:20.945Z,2.90
2023-11-30T14:03:54.798Z,2.80
2023-11-30T14:06:28.901Z,2.70
2023-11-30T14:09:08.886Z,2.60
2023-11-30T14:11:42.790Z,2.60
2023-11-30T14:14:16.974Z,2.50
2023-11-30T14:16:50.777Z,2.40
2023-11-30T14:19:24.446Z,2.30
2023-11-30T14:21:58.598Z,2.20
2023-11-30T14:24:32.547Z,2.18
2023-11-30T14:27:07.243Z,2.10
2023-11-30T14:29:41.243Z,2.00
2023-11-30T14:32:15.661Z,1.94
2023-11-30T14:34:49.506Z,1.80
2023-11-30T14:37:24.039Z,1.80
2023-11-30T14:39:58.162Z,1.70
2023-11-30T14:42:33.160Z,1.60
2023-11-30T14:45:11.631Z,1.50
2023-11-30T14:47:48.549Z,1.40
2023-11-30T14:50:22.719Z,1.30
2023-11-30T14:52:58.743Z,1.30
2023-11-30T14:55:59.316Z,1.28
2023-11-30T14:58:36.805Z,1.22
2023-11-30T15:01:13.465Z,1.20
2023-11-30T15:03:52.648Z,1.10
2023-11-30T15:06:34.310Z,1.00
2023-11-30T15:09:12.811Z,0.80
2023-11-30T15:15:55.968Z,0.60
2023-11-30T15:18:32.009Z,0.50
2023-11-30T15:21:06.014Z,0.40
2023-11-30T15:23:40.164Z,0.30
2023-11-30T15:26:18.121Z,0.22
2023-11-30T15:28:51.794Z,0.12
2023-11-30T15:31:28.316Z,0.00
2023-11-30T15:34:02.129Z,-0.10
2023-11-30T15:36:36.663Z,-0.18
2023-11-30T15:39:16.856Z,-0.22
2023-11-30T15:41:52.058Z,-0.30
2023-11-30T15:44:26.064Z,-0.30
2023-11-30T15:47:00.871Z,-0.36
2023-11-30T15:49:35.589Z,-0.40
2023-11-30T15:52:10.158Z,-0.48
2023-11-30T15:54:46.345Z,-0.50
2023-11-30T15:57:29.568Z,-0.60
2023-11-30T16:00:07.855Z,-0.60
2023-11-30T16:02:50.226Z,-0.66
2023-11-30T16:05:24.703Z,-0.70
2023-11-30T16:07:58.948Z,-0.70
2023-11-30T16:10:33.233Z,-0.80
2023-11-30T16:13:08.075Z,-0.84
2023-11-30T16:15:42.437Z,-0.90
2023-11-30T16:18:17.284Z,-1.00
2023-11-30T16:20:51.567Z,-1.10
2023-11-30T16:23:25.628Z,-1.20
2023-11-30T16:26:03.475Z,-1.30
2023-11-30T16:28:41.184Z,-1.40
2023-11-30T16:31:16.452Z,-1.42
2023-11-30T16:33:53.589Z,-1.50
2023-11-30T16:36:28.383Z,-1.50
2023-11-30T16:39:14.401Z,-1.50
2023-11-30T16:41:53.903Z,-1.60
2023-11-30T16:44:28.758Z,-1.60
2023-11-30T16:47:05.443Z,-1.70
2023-11-30T16:49:45.657Z,-1.70
2023-11-30T16:52:20.761Z,-1.80
2023-11-30T16:54:55.097Z,-1.80
2023-11-30T16:57:33.522Z,-1.90
2023-11-30T17:00:10.121Z,-1.96
2023-11-30T17:02:44.390Z,-2.00
2023-11-30T17:05:18.966Z,-2.00
2023-11-30T17:07:55.228Z,-2.04
2023-11-30T17:10:34.738Z,-2.10
2023-11-30T17:13:14.411Z,-2.18
2023-11-30T17:15:48.820Z,-2.20
2023-11-30T17:18:23.705Z,-2.12
2023-11-30T17:21:02.737Z,-2.10
2023-11-30T17:23:39.047Z,-2.12
2023-11-30T17:26:16.218Z,-2.10
2023-11-30T17:28:50.536Z,-2.10
2023-11-30T17:31:28.616Z,-2.10
2023-11-30T17:34:05.092Z,-2.10
2023-11-30T17:36:44.469Z,-2.00
2023-11-30T17:39:19.175Z,-2.00
2023-11-30T17:41:59.490Z,-2.00
2023-11-30T17:44:36.064Z,-2.00
2023-11-30T17:47:10.292Z,-2.08
2023-11-30T17:49:44.126Z,-2.10
2023-11-30T17:52:17.897Z,-2.16
2023-11-30T17:54:54.614Z,-2.20
2023-11-30T17:57:32.755Z,-2.28
2023-11-30T18:00:08.161Z,-2.28
2023-11-30T18:02:55.418Z,-2.30
2023-11-30T18:05:32.574Z,-2.30
2023-11-30T18:08:09.131Z,-2.30
2023-11-30T18:14:21.546Z,-2.36
2023-11-30T18:16:56.230Z,-2.30
2023-11-30T18:19:30.102Z,-2.30
2023-11-30T18:22:14.662Z,-2.28
2023-11-30T18:24:52.859Z,-2.26
2023-11-30T18:33:47.278Z,-2.22
2023-11-30T18:36:21.935Z,-2.20
2023-11-30T18:39:20.533Z,-2.20
2023-11-30T18:43:23.673Z,-2.20
2023-11-30T18:46:16.604Z,-2.14
2023-11-30T18:48:52.471Z,-2.10
2023-11-30T18:51:31.574Z,-2.04
2023-11-30T18:54:08.582Z,-2.00
2023-11-30T18:56:47.977Z,-2.00
2023-11-30T18:59:56.507Z,-1.90
2023-11-30T19:02:38.504Z,-1.88
2023-11-30T19:05:16.984Z,-1.80
2023-11-30T19:07:54.177Z,-1.80
2023-11-30T19:11:28.519Z,-1.70
2023-11-30T19:15:19.014Z,-1.68
2023-11-30T19:17:55.489Z,-1.60
2023-11-30T19:20:38.949Z,-1.54
2023-11-30T19:23:12.906Z,-1.50
2023-11-30T19:25:48.215Z,-1.50
2023-11-30T19:28:41.296Z,-1.50
2023-11-30T19:31:17.616Z,-1.50
2023-11-30T19:34:15.789Z,-1.50
2023-11-30T19:37:00.319Z,-1.50
2023-11-30T19:39:52.021Z,-1.50
2023-11-30T19:42:35.935Z,-1.50
2023-11-30T19:45:13.353Z,-1.48
2023-11-30T19:47:53.583Z,-1.50
2023-11-30T19:50:29.326Z,-1.50
2023-11-30T19:53:08.387Z,-1.46
2023-11-30T19:55:48.176Z,-1.42
2023-11-30T19:58:22.421Z,-1.42
2023-11-30T20:00:57.322Z,-1.42
2023-11-30T20:03:38.222Z,-1.48
2023-11-30T20:06:19.806Z,-1.50
2023-11-30T20:08:54.699Z,-1.50
2023-11-30T20:11:28.969Z,-1.50
2023-11-30T20:14:06.059Z,-1.50
2023-11-30T20:16:46.165Z,-1.50
2023-11-30T20:19:24.399Z,-1.50
2023-11-30T20:21:58.544Z,-1.42
2023-11-30T20:24:35.500Z,-1.40
2023-11-30T20:27:13.114Z,-1.40
2023-11-30T20:29:50.673Z,-1.40
2023-11-30T20:32:27.662Z,-1.40
2023-11-30T20:35:08.128Z,-1.40
2023-11-30T20:37:47.958Z,-1.40
2023-11-30T20:40:22.322Z,-1.40
2023-11-30T20:42:56.237Z,-1.40
2023-11-30T20:45:30.245Z,-1.42
2023-11-30T20:48:04.098Z,-1.40
2023-11-30T20:50:38.328Z,-1.42
2023-11-30T20:53:13.256Z,-1.42
2023-11-30T20:55:48.012Z,-1.40
2023-11-30T20:58:22.108Z,-1.40
2023-11-30T21:00:56.232Z,-1.38
2023-11-30T21:12:50.424Z,-1.30
2023-11-30T21:15:43.001Z,-1.30
2023-11-30T21:18:18.727Z,-1.30
2023-11-30T21:20:54.015Z,-1.30
2023-11-30T21:23:29.326Z,-1.30
2023-11-30T21:26:04.958Z,-1.26
2023-11-30T21:28:40.113Z,-1.20
2023-11-30T21:31:16.000Z,-1.30
2023-11-30T21:33:51.615Z,-1.30
2023-11-30T21:36:27.505Z,-1.30
2023-11-30T21:39:02.833Z,-1.40
2023-11-30T21:41:37.923Z,-1.40
2023-11-30T21:44:13.291Z,-1.50
2023-11-30T21:46:58.705Z,-1.50
2023-11-30T21:49:33.845Z,-1.60
2023-11-30T21:52:11.155Z,-1.60
2023-11-30T21:54:49.444Z,-1.60
2023-11-30T21:57:24.676Z,-1.60
2023-11-30T21:59:59.793Z,-1.62
2023-11-30T22:02:35.289Z,-1.70
2023-11-30T22:05:12.209Z,-1.70
2023-11-30T22:07:50.981Z,-1.78
2023-11-30T22:10:26.251Z,-1.80
2023-11-30T22:13:01.333Z,-1.90
2023-11-30T22:15:36.856Z,-1.90
2023-11-30T22:18:12.035Z,-2.00
2023-11-30T22:20:50.965Z,-2.10
2023-11-30T22:23:31.866Z,-2.20
2023-11-30T22:26:07.119Z,-2.30
2023-11-30T22:28:42.181Z,-2.34
2023-11-30T22:31:22.020Z,-2.40
2023-11-30T22:33:57.199Z,-2.40
2023-11-30T22:36:32.100Z,-2.40
2023-11-30T22:39:08.392Z,-2.40
2023-11-30T22:41:45.058Z,-2.40
2023-11-30T22:44:20.314Z,-2.40
2023-11-30T22:46:55.344Z,-2.40
2023-11-30T22:49:31.951Z,-2.30
2023-11-30T22:52:08.163Z,-2.30
2023-11-30T22:54:43.340Z,-2.20
2023-11-30T22:57:18.483Z,-2.20
2023-11-30T22:59:53.699Z,-2.20
2023-11-30T23:02:30.001Z,-2.20
2023-11-30T23:05:07.228Z,-2.10
2023-11-30T23:07:42.227Z,-2.10
2023-11-30T23:10:18.832Z,-2.02
2023-11-30T23:12:54.264Z,-2.00
2023-11-30T23:15:29.485Z,-1.98
2023-11-30T23:18:04.291Z,-2.00
2023-11-30T23:20:39.706Z,-1.90
2023-11-30T23:23:14.948Z,-1.90
2023-11-30T23:25:49.921Z,-1.90
2023-11-30T23:28:25.525Z,-1.90
2023-11-30T23:31:02.131Z,-1.90
2023-11-30T23:33:39.097Z,-1.98
2023-11-30T23:36:16.095Z,-2.00
2023-11-30T23:38:52.448Z,-2.10
2023-11-30T23:41:27.276Z,-2.10
2023-11-30T23:44:02.440Z,-2.10
2023-11-30T23:46:38.171Z,-2.10
2023-11-30T23:49:13.263Z,-2.10
2023-11-30T23:51:49.082Z,-2.10
2023-11-30T23:54:24.045Z,-2.08
2023-11-30T23:56:58.960Z,-2.00
2023-11-30T23:59:33.918Z,-2.00
